Flight Track Log - Related Links

Times and Time Zones

All times are in EDT time to prevent confusion due to time zone crossing. See the EJA947 flight status page for this flight to view local times or setup timezone preferences in your user account.

Time Position Orientation Groundspeed Altitude Reporting Facility
EDT Latitude Longitude Course Direction KTS MPH feet Rate Location/Type
Sun 03:48:31 PM 26.4331 -80.2719 346° North 284 327 6,700  Level Miami Center
Sun 03:49:31 PM 26.4861 -80.3336 314° West 289 333 8,900 1,800 Climbing Miami Center
Sun 03:50:31 PM 26.5150 -80.4275 289° West 289 333 10,300 1,150 Climbing Miami Center
Sun 03:51:31 PM 26.5358 -80.5139 285° West 312 359 11,200 1,400 Climbing Miami Center
Sun 03:52:00 PM 26.9703 -80.5345 343° North  Level FlightAware Approximate
Sun 03:52:31 PM 26.6092 -80.5928 316° Northwest 320 368 13,100  Level Miami Center
Sun 03:53:00 PM 27.0936 -80.5720 346° North  Level FlightAware Approximate
Sun 03:53:31 PM 26.6964 -80.6094 350° North 317 365 14,400  Level Miami Center
Sun 03:54:31 PM 26.8028 -80.6106 359° North 368 423 16,000 1,700 Climbing Miami Center
Sun 03:55:31 PM 26.9039 -80.5744 18° North 383 441 17,800 1,600 Climbing Miami Center
Sun 03:56:31 PM 26.9919 -80.4817 43° Northeast 369 425 19,200 1,550 Climbing Miami Center
Sun 03:57:31 PM 27.0969 -80.4569 12° North 380 437 20,900 1,550 Climbing Miami Center
Sun 03:58:31 PM 27.2050 -80.4836 348° North 372 428 22,300 1,400 Climbing Miami Center
Sun 03:59:31 PM 27.3061 -80.5264 339° North 379 436 23,700 1,400 Climbing Miami Center
Sun 04:00:31 PM 27.4136 -80.5719 339° North 386 444 25,100 1,000 Climbing Miami Center
Sun 04:01:31 PM 27.5208 -80.6175 339° North 404 465 25,700 650 Climbing Miami Center
Sun 04:02:31 PM 27.6344 -80.6658 339° North 416 479 26,400 700 Climbing Miami Center
Sun 04:03:31 PM 27.7500 -80.7119 341° North 428 493 27,100 700 Climbing Miami Center
Sun 04:04:31 PM 27.8617 -80.7581 340° North 452 520 27,800 850 Climbing Miami Center
Sun 04:05:31 PM 27.9792 -80.8089 339° North 457 526 28,800 950 Climbing Miami Center
Sun 04:06:31 PM 28.1008 -80.8581 340° North 464 534 29,700 1,050 Climbing Miami Center
Sun 04:07:31 PM 28.2186 -80.9069 340° North 464 534 30,900 1,300 Climbing Miami Center
Sun 04:08:31 PM 28.3361 -80.9583 339° North 458 527 32,300 1,500 Climbing Miami Center
Sun 04:09:31 PM 28.4536 -81.0097 339° North 453 521 33,900 1,750 Climbing Miami Center
Sun 04:10:31 PM 28.5814 -81.0619 340° North 444 511 35,800 1,700 Climbing Miami Center
Sun 04:11:31 PM 28.6822 -81.1058 339° North 439 505 37,300 1,400 Climbing Jacksonville Center
Sun 04:12:31 PM 28.7994 -81.1417 345° North 432 497 38,600 850 Climbing Jacksonville Center
Sun 04:13:31 PM 28.9231 -81.1703 349° North 432 497 39,000 200 Climbing Jacksonville Center
Sun 04:14:31 PM 29.0528 -81.2014 348° North 456 525 39,000  Level Jacksonville Center
Sun 04:15:31 PM 29.1847 -81.2325 348° North 469 540 39,000  Level Jacksonville Center
Sun 04:16:31 PM 29.3189 -81.2658 348° North 481 554 39,000  Level Jacksonville Center
Sun 04:17:31 PM 29.4547 -81.2947 350° North 487 560 39,000  Level Jacksonville Center
Sun 04:18:31 PM 29.5972 -81.3306 348° North 474 545 39,000  Level Jacksonville Center
Sun 04:19:31 PM 29.7333 -81.3642 348° North 481 554 39,000  Level Jacksonville Center
Sun 04:20:31 PM 29.8694 -81.3981 348° North 487 560 39,000  Level Jacksonville Center
Sun 04:21:31 PM 30.0033 -81.4294 349° North 487 560 39,000  Level Jacksonville Center
Sun 04:22:31 PM 30.1375 -81.4611 348° North 487 560 39,000  Level Jacksonville Center
Sun 04:23:31 PM 30.2778 -81.4950 348° North 487 560 39,000  Level Jacksonville Center
Sun 04:24:31 PM 30.4014 -81.5536 338° Northwest 487 560 39,000  Level Jacksonville Center
Sun 04:25:31 PM 30.4964 -81.6389 322° Northwest 472 543 39,000 -50 Level Jacksonville Center
Sun 04:26:31 PM 30.5994 -81.7244 324° Northwest 472 543 38,900  Descending Jacksonville Center
Sun 04:27:31 PM 30.7044 -81.8125 324° Northwest 472 543 39,000 50 Climbing Jacksonville Center
Sun 04:28:31 PM 30.8117 -81.9008 325° Northwest 472 543 39,000 250 Level Jacksonville Center
Sun 04:29:31 PM 30.9189 -81.9917 324° Northwest 472 543 39,500 400 Climbing Jacksonville Center
Sun 04:30:31 PM 31.0219 -82.0806 324° Northwest 472 543 39,800 300 Climbing Jacksonville Center
Sun 04:31:31 PM 31.1247 -82.1669 324° Northwest 472 543 40,100 350 Climbing Jacksonville Center
Sun 04:32:31 PM 31.2317 -82.2536 325° Northwest 467 537 40,500 400 Climbing Jacksonville Center
Sun 04:33:31 PM 31.3322 -82.3406 324° Northwest 460 529 40,900 250 Climbing Jacksonville Center
Sun 04:34:31 PM 31.4328 -82.4225 325° Northwest 455 524 41,000 37 Climbing Jacksonville Center
Sun 04:36:15 PM 31.6169 -82.5903 322° Northwest 463 533 41,000  Level Atlanta Center
Sun 04:37:15 PM 31.7161 -82.6839 321° Northwest 463 533 41,000  Level Atlanta Center
Sun 04:38:15 PM 31.8131 -82.7778 321° Northwest 455 524 41,000  Level Atlanta Center
Sun 04:39:15 PM 31.9103 -82.8742 320° Northwest 455 524 41,000  Level Atlanta Center
Sun 04:40:15 PM 32.0069 -82.9661 321° Northwest 455 524 41,000  Level Atlanta Center
Sun 04:41:15 PM 32.1017 -83.0631 319° Northwest 455 524 41,000  Level Atlanta Center
Sun 04:42:15 PM 32.2006 -83.1578 321° Northwest 455 524 41,000  Level Atlanta Center
Sun 04:43:15 PM 32.2867 -83.2453 319° Northwest 455 524 41,000  Level Atlanta Center
Sun 04:44:15 PM 32.3853 -83.3428 320° Northwest 455 524 41,000  Level Atlanta Center
Sun 04:45:15 PM 32.4839 -83.4406 320° Northwest 455 524 41,000  Level Atlanta Center
Sun 04:46:15 PM 32.5825 -83.5383 320° Northwest 455 524 41,000  Level Atlanta Center
Sun 04:47:15 PM 32.6831 -83.6367 321° Northwest 460 529 41,000  Level Atlanta Center
Sun 04:48:15 PM 32.7897 -83.7300 324° Northwest 466 536 41,000  Level Atlanta Center
Sun 04:49:15 PM 32.8964 -83.8211 324° Northwest 471 542 41,000  Level Atlanta Center
Sun 04:50:15 PM 33.0072 -83.9100 326° Northwest 481 554 41,000 300 Level Atlanta Center
Sun 04:51:15 PM 33.1139 -84.0042 324° Northwest 481 554 41,600 850 Climbing Atlanta Center
Sun 04:52:15 PM 33.2203 -84.0933 325° Northwest 481 554 42,700 700 Climbing Atlanta Center
Sun 04:53:15 PM 33.3244 -84.1806 325° Northwest 470 541 43,000 150 Climbing Atlanta Center
Sun 04:54:15 PM 33.4289 -84.2703 324° Northwest 470 541 43,000  Level Atlanta Center
Sun 04:55:15 PM 33.5433 -84.3678 325° Northwest 470 541 43,000  Level Atlanta Center
Sun 04:56:15 PM 33.6475 -84.4581 324° Northwest 473 544 43,000  Level Atlanta Center
Sun 04:57:15 PM 33.7556 -84.5486 325° Northwest 473 544 43,000  Level Atlanta Center
Sun 04:58:15 PM 33.8597 -84.6367 325° Northwest 473 544 43,000  Level Atlanta Center
Sun 04:59:15 PM 33.9636 -84.7275 324° Northwest 473 544 43,000  Level Atlanta Center
Sun 05:00:15 PM 34.0672 -84.8211 323° Northwest 468 539 43,000  Level Atlanta Center
Sun 05:01:15 PM 34.1669 -84.9050 325° Northwest 475 547 43,000  Level Atlanta Center
Sun 05:02:15 PM 34.2728 -84.9964 324° Northwest 470 541 43,000  Level Atlanta Center
Sun 05:03:15 PM 34.3783 -85.0883 324° Northwest 470 541 43,000  Level Atlanta Center
Sun 05:04:15 PM 34.4900 -85.1931 322° Northwest 470 541 43,000  Level Atlanta Center
Sun 05:05:15 PM 34.5978 -85.2853 325° Northwest 464 534 43,000  Level Atlanta Center
Sun 05:06:15 PM 34.7053 -85.3806 324° Northwest 470 541 43,000  Level Atlanta Center
Sun 05:07:15 PM 34.8106 -85.4758 323° Northwest 476 548 43,000  Level Atlanta Center
Sun 05:11:20 PM 35.2431 -85.8647 324° Northwest 488 562 43,000  Level Memphis Center
Sun 05:12:20 PM 35.3594 -85.9731 323° Northwest 488 562 43,000  Level Memphis Center
Sun 05:13:20 PM 35.4694 -86.0717 324° Northwest 482 555 43,000  Level Memphis Center
Sun 05:14:20 PM 35.5814 -86.1731 324° Northwest 482 555 43,000  Level Memphis Center
Sun 05:15:20 PM 35.6758 -86.2603 323° Northwest 482 555 43,000  Level Memphis Center
Sun 05:16:20 PM 35.7942 -86.3697 323° Northwest 482 555 43,000  Level Memphis Center
Sun 05:17:20 PM 35.9058 -86.4719 323° Northwest 482 555 43,000  Level Memphis Center
Sun 05:18:20 PM 36.0131 -86.5719 323° Northwest 476 548 43,000  Level Memphis Center
Sun 05:19:20 PM 36.1164 -86.6725 322° Northwest 483 556 43,000  Level Memphis Center
Sun 05:20:20 PM 36.1808 -86.8111 300° West 462 532 43,000  Level Memphis Center
Sun 05:21:20 PM 36.2433 -86.9603 297° West 473 544 43,000  Level Memphis Center
Sun 05:22:20 PM 36.2928 -87.0919 295° West 478 550 43,000  Level Memphis Center
Sun 05:23:20 PM 36.3506 -87.2314 297° West 467 537 43,000  Level Memphis Center
Sun 05:24:20 PM 36.4061 -87.3761 296° West 462 532 43,000 -250 Level Memphis Center
Sun 05:25:20 PM 36.4617 -87.5186 296° West 457 526 42,500 -1,000 Descending Memphis Center
Sun 05:26:20 PM 36.5236 -87.6739 296° West 457 526 41,000 -1,250 Descending Memphis Center
Sun 05:27:20 PM 36.5808 -87.8297 295° West 476 548 40,000 -1,000 Descending Memphis Center
Sun 05:28:20 PM 36.6403 -87.9831 296° West 490 564 39,000 -950 Descending Memphis Center
Sun 05:29:20 PM 36.6864 -88.1033 296° West 490 564 38,100 -1,000 Descending Memphis Center
Sun 05:30:20 PM 36.7539 -88.2750 296° West 490 564 37,000 -1,050 Descending Memphis Center
Sun 05:31:20 PM 36.8106 -88.4342 294° West 501 577 36,000 -1,000 Descending Memphis Center
Sun 05:32:20 PM 36.8692 -88.5858 296° West 496 571 35,000 -1,000 Descending Memphis Center
Sun 05:33:20 PM 36.9256 -88.7400 295° West 496 571 34,000 -1,000 Descending Memphis Center
Sun 05:34:20 PM 36.9817 -88.8975 294° West 496 571 33,000 -900 Descending Memphis Center
Sun 05:35:20 PM 37.0397 -89.0575 294° West 501 577 32,200 -982 Descending Memphis Center
Sun 05:37:11 PM 37.1381 -89.3250 295° West 495 570 30,200 -1,116 Descending Kansas City Center
Sun 05:38:12 PM 37.2058 -89.5111 295° West 492 566 29,000 -1,033 Descending Kansas City Center
Sun 05:39:13 PM 37.3106 -89.6203 320° Northwest 493 567 28,100 -934 Descending Kansas City Center
Sun 05:40:14 PM 37.4372 -89.6889 337° Northwest 495 570 27,100 -960 Descending Kansas City Center
Sun 05:41:18 PM 37.5569 -89.7539 337° Northwest 470 541 26,100 -1,016 Descending Kansas City Center
Sun 05:42:18 PM 37.6700 -89.8150 337° Northwest 411 473 25,000 -1,016 Descending Kansas City Center
Sun 05:43:22 PM 37.7697 -89.8703 336° Northwest 396 456 24,000 -1,008 Descending Kansas City Center
Sun 05:44:23 PM 37.8756 -89.9269 337° Northwest 397 457 22,900 -1,063 Descending Kansas City Center
Sun 05:44:41 PM 37.9044 -89.8869 48° Northeast 394 453 22,600 -1,421 Descending FAA TRACON SMA TRACON (SMA)
Sun 05:45:01 PM 37.9353 -89.9036 337° Northwest 392 451 22,000 -2,250 Descending FAA TRACON SMA TRACON (SMA)
Sun 05:45:21 PM 37.9731 -89.9256 335° Northwest 389 448 21,100 -2,250 Descending FAA TRACON SMA TRACON (SMA)
Sun 05:45:41 PM 38.0036 -89.9419 337° Northwest 393 452 20,500 -1,800 Descending FAA TRACON SMA TRACON (SMA)
Sun 05:46:01 PM 38.0333 -89.9594 335° Northwest 385 443 19,900 -1,950 Descending FAA TRACON SMA TRACON (SMA)
Sun 05:46:21 PM 38.0694 -89.9789 337° Northwest 369 425 19,200 -1,650 Descending FAA TRACON SMA TRACON (SMA)
Sun 05:46:41 PM 38.0978 -89.9956 335° Northwest 361 415 18,800 -1,350 Descending FAA TRACON SMA TRACON (SMA)
Sun 05:47:01 PM 38.1258 -90.0117 336° Northwest 360 414 18,300 -2,400 Descending FAA TRACON SMA TRACON (SMA)
Sun 05:47:21 PM 38.1614 -90.0333 334° Northwest 367 422 17,200 -2,550 Descending FAA TRACON SMA TRACON (SMA)
Sun 05:47:41 PM 38.1908 -90.0489 337° Northwest 370 426 16,600 -1,800 Descending FAA TRACON SMA TRACON (SMA)
Sun 05:48:01 PM 38.2197 -90.0656 336° Northwest 371 427 16,000 -2,100 Descending FAA TRACON SMA TRACON (SMA)
Sun 05:48:21 PM 38.2558 -90.0867 335° Northwest 371 427 15,200 -2,100 Descending FAA TRACON SMA TRACON (SMA)
Sun 05:48:41 PM 38.2847 -90.1028 336° Northwest 368 423 14,600 -1,650 Descending FAA TRACON SMA TRACON (SMA)
Sun 05:49:01 PM 38.3131 -90.1181 337° Northwest 362 417 14,100 -1,800 Descending FAA TRACON SMA TRACON (SMA)
Sun 05:49:21 PM 38.3469 -90.1375 336° Northwest 347 399 13,400 -1,950 Descending FAA TRACON SMA TRACON (SMA)
Sun 05:49:41 PM 38.3731 -90.1517 337° Northwest 336 387 12,800 -1,650 Descending FAA TRACON SMA TRACON (SMA)
Sun 05:50:01 PM 38.3983 -90.1661 336° Northwest 327 376 12,300 -1,800 Descending FAA TRACON SMA TRACON (SMA)
Sun 05:50:21 PM 38.4294 -90.1842 336° Northwest 318 366 11,600 -1,800 Descending FAA TRACON SMA TRACON (SMA)
Sun 05:50:41 PM 38.4542 -90.1978 337° Northwest 315 362 11,100 -1,350 Descending FAA TRACON SMA TRACON (SMA)
Sun 05:51:01 PM 38.4783 -90.2114 336° Northwest 310 357 10,700 -1,200 Descending FAA TRACON SMA TRACON (SMA)
Sun 05:51:21 PM 38.5086 -90.2289 336° Northwest 309 356 10,300 -1,050 Descending FAA TRACON SMA TRACON (SMA)
Sun 05:51:41 PM 38.5331 -90.2428 336° Northwest 311 358 10,000 -750 Descending FAA TRACON SMA TRACON (SMA)
Sun 05:52:01 PM 38.5567 -90.2558 337° Northwest 304 350 9,800 -900 Descending FAA TRACON SMA TRACON (SMA)
Sun 05:52:21 PM 38.5850 -90.2719 336° Northwest 290 334 9,400 -1,050 Descending FAA TRACON SMA TRACON (SMA)
Sun 05:52:41 PM 38.6069 -90.2844 336° Northwest 282 325 9,100 -900 Descending FAA TRACON SMA TRACON (SMA)
Sun 05:53:01 PM 38.6281 -90.2969 335° Northwest 276 318 8,800 -1,050 Descending FAA TRACON SMA TRACON (SMA)
Sun 05:53:21 PM 38.6481 -90.3222 315° West 267 307 8,400 -1,200 Descending FAA TRACON SMA TRACON (SMA)
Sun 05:53:41 PM 38.6594 -90.3464 301° West 260 299 8,000 -1,200 Descending FAA TRACON SMA TRACON (SMA)
Sun 05:54:01 PM 38.6711 -90.3706 302° West 259 298 7,600 -1,200 Descending FAA TRACON SMA TRACON (SMA)
Sun 05:54:21 PM 38.6831 -90.3947 302° West 260 299 7,200 -1,350 Descending FAA TRACON SMA TRACON (SMA)
Sun 05:54:41 PM 38.6981 -90.4236 304° West 253 291 6,700 -1,350 Descending FAA TRACON SMA TRACON (SMA)
Sun 05:55:01 PM 38.7094 -90.4461 303° West 246 283 6,300 -1,350 Descending FAA TRACON SMA TRACON (SMA)
Sun 05:55:21 PM 38.7211 -90.4692 303° West 249 287 5,800 -1,650 Descending FAA TRACON SMA TRACON (SMA)
Sun 05:55:41 PM 38.7356 -90.4983 302° West 251 289 5,200 -800 Descending FAA TRACON SMA TRACON (SMA)
Sun 05:56:21 PM 38.7581 -90.5431 303° West 240 276 5,000 -197 Descending FAA TRACON SMA TRACON (SMA)
Sun 05:56:42 PM 38.7722 -90.5683 306° West 229 264 5,000  Level FAA TRACON SMA TRACON (SMA)
Sun 05:57:01 PM 38.7836 -90.5883 306° West 226 260 5,000  Level FAA TRACON SMA TRACON (SMA)
Sun 05:57:21 PM 38.7950 -90.6094 305° West 231 266 5,000  Level FAA TRACON SMA TRACON (SMA)
Sun 05:57:41 PM 38.8189 -90.6219 338° Northwest 253 291 5,000  Level FAA TRACON SMA TRACON (SMA)
Sun 05:58:01 PM 38.8381 -90.6133 19° North 254 292 5,000  Level FAA TRACON SMA TRACON (SMA)
Sun 05:58:21 PM 38.8508 -90.5953 48° Northeast 239 275 5,000  Level FAA TRACON SMA TRACON (SMA)
Sun 05:58:41 PM 38.8581 -90.5744 66° East 216 249 5,000 -300 Level FAA TRACON SMA TRACON (SMA)
Sun 05:59:01 PM 38.8633 -90.5483 75° East 202 232 4,800 -750 Descending FAA TRACON SMA TRACON (SMA)
Sun 05:59:21 PM 38.8578 -90.5308 112° Southeast 189 217 4,500 -750 Descending FAA TRACON SMA TRACON (SMA)
Sun 05:59:41 PM 38.8486 -90.5156 128° Southeast 176 203 4,300 -900 Descending FAA TRACON SMA TRACON (SMA)
Sun 06:00:01 PM 38.8378 -90.4956 125° Southeast 177 204 3,900 -1,050 Descending FAA TRACON SMA TRACON (SMA)
Sun 06:00:21 PM 38.8294 -90.4789 123° Southeast 178 205 3,600 -900 Descending FAA TRACON SMA TRACON (SMA)
Sun 06:00:41 PM 38.8214 -90.4628 123° Southeast 177 204 3,300 -1,024 Descending FAA TRACON SMA TRACON (SMA)
Sun 06:01:02 PM 38.8117 -90.4425 122° Southeast 172 198 2,900 -900 Descending FAA TRACON SMA TRACON (SMA)
Sun 06:01:21 PM 38.8042 -90.4272 122° Southeast 168 193 2,700 -769 Descending FAA TRACON SMA TRACON (SMA)
Sun 06:01:41 PM 38.7967 -90.4125 123° Southeast 162 186 2,400 -900 Descending FAA TRACON SMA TRACON (SMA)
Sun 06:02:01 PM 38.7892 -90.3953 119° Southeast 146 168 2,100 -750 Descending FAA TRACON SMA TRACON (SMA)
Sun 06:02:21 PM 38.7833 -90.3836 123° Southeast 130 150 1,900 -600 Descending FAA TRACON SMA TRACON (SMA)
Sun 06:02:41 PM 38.7772 -90.3719 124° Southeast 126 145 1,700 -600 Descending FAA TRACON SMA TRACON (SMA)
Sun 06:03:01 PM 38.7697 -90.3575 124° Southeast 126 145 1,500 -750 Descending FAA TRACON SMA TRACON (SMA)
Sun 06:03:21 PM 38.7644 -90.3461 121° Southeast 124 143 1,200 -732 Descending FAA TRACON SMA TRACON (SMA)
Sun 06:03:42 PM 38.7586 -90.3344 123° Southeast 126 145 1,000 -585 Descending FAA TRACON SMA TRACON (SMA)
Sun 06:04:02 PM 38.7525 -90.3222 123° Southeast 129 148 800 -450 Descending FAA TRACON SMA TRACON (SMA)
Sun 06:04:22 PM 38.7481 -90.3136 123° Southeast 127 146 700 -300 Descending FAA TRACON SMA TRACON (SMA)

Login

Don't have an account? Register now (free) for customized features, flight alerts, and more!